KBEC/BEC METAR and TAF weather

Enter ICAO airport designator
Station Type Date Time Source
KBEC METAR 2019/10/20 19:15 UTC NOAA

KBEC 201915Z AUTO 14018G22KT 10SM CLR 21/08 A2961 RMK AO2 T02110080


Station Type Date Time Source
KBEC Decoded METAR 2019/10/20 19:15 UTC NOAA

Station name not available
Oct 20, 2019 - 03:15 PM EDT / 2019.10.20 1915 UTC
Wind: from the SE (140 degrees) at 21 MPH (18 KT) gusting to 25 MPH (22 KT):0
Visibility: 10 mile(s):0
Sky conditions: clear
Temperature: 70.0 F (21.1 C)
Dew Point: 46.4 F (8.0 C)
Relative Humidity: 42%
Pressure (altimeter): 29.61 in. Hg (1002 hPa)
ob: KBEC 201915Z AUTO 14018G22KT 10SM CLR 21/08 A2961 RMK AO2 T02110080
cycle: 19

Station Type Date Time Source
KBEC TAF UTC NOAA

Error!

Example: see airport list